sensor_id;sensor_type;location;lat;lon;timestamp;P1;durP1;ratioP1;P2;durP2;ratioP2
32106;SDS011;18622;51.998;10.440;2023-01-10T03:17:38;11.75;;;7.17;;
32106;SDS011;18622;51.998;10.440;2023-01-10T03:20:08;15.35;;;7.15;;
32106;SDS011;18622;51.998;10.440;2023-01-10T03:22:37;14.30;;;7.28;;
32106;SDS011;18622;51.998;10.440;2023-01-10T03:27:37;13.70;;;6.55;;
32106;SDS011;18622;51.998;10.440;2023-01-10T03:30:24;18.73;;;6.93;;
32106;SDS011;18622;51.998;10.440;2023-01-10T03:32:54;16.03;;;7.03;;
32106;SDS011;18622;51.998;10.440;2023-01-10T03:35:29;12.90;;;6.08;;
32106;SDS011;18622;51.998;10.440;2023-01-10T03:38:20;15.97;;;6.27;;
32106;SDS011;18622;51.998;10.440;2023-01-10T03:40:54;12.70;;;6.17;;
32106;SDS011;18622;51.998;10.440;2023-01-10T03:43:45;12.13;;;6.03;;
32106;SDS011;18622;51.998;10.440;2023-01-10T03:46:35;11.53;;;5.53;;
32106;SDS011;18622;51.998;10.440;2023-01-10T03:49:03;11.40;;;5.03;;
32106;SDS011;18622;51.998;10.440;2023-01-10T03:51:33;12.33;;;5.50;;
32106;SDS011;18622;51.998;10.440;2023-01-10T03:54:03;10.05;;;4.50;;
32106;SDS011;18622;51.998;10.440;2023-01-10T03:56:41;10.03;;;4.50;;
32106;SDS011;18622;51.998;10.440;2023-01-10T03:59:24;12.40;;;5.77;;
32106;SDS011;18622;51.998;10.440;2023-01-10T04:35:08;7.00;;;2.17;;
32106;SDS011;18622;51.998;10.440;2023-01-10T04:37:36;12.53;;;2.10;;
32106;SDS011;18622;51.998;10.440;2023-01-10T04:40:04;7.10;;;1.63;;
32106;SDS011;18622;51.998;10.440;2023-01-10T04:42:32;8.30;;;1.55;;
32106;SDS011;18622;51.998;10.440;2023-01-10T04:45:00;10.57;;;1.93;;
32106;SDS011;18622;51.998;10.440;2023-01-10T04:47:27;10.13;;;3.33;;
32106;SDS011;18622;51.998;10.440;2023-01-10T04:49:55;12.07;;;3.43;;
32106;SDS011;18622;51.998;10.440;2023-01-10T04:52:23;13.07;;;1.77;;
32106;SDS011;18622;51.998;10.440;2023-01-10T04:54:53;9.75;;;1.72;;
32106;SDS011;18622;51.998;10.440;2023-01-10T04:57:21;7.67;;;2.60;;
32106;SDS011;18622;51.998;10.440;2023-01-10T04:59:48;12.70;;;2.63;;
32106;SDS011;18622;51.998;10.440;2023-01-10T05:02:16;13.30;;;1.70;;
32106;SDS011;18622;51.998;10.440;2023-01-10T05:04:44;8.07;;;2.03;;
32106;SDS011;18622;51.998;10.440;2023-01-10T05:07:12;15.83;;;2.33;;
32106;SDS011;18622;51.998;10.440;2023-01-10T05:09:39;10.23;;;3.07;;
32106;SDS011;18622;51.998;10.440;2023-01-10T05:12:07;16.57;;;2.33;;
32106;SDS011;18622;51.998;10.440;2023-01-10T05:14:35;6.57;;;2.90;;
32106;SDS011;18622;51.998;10.440;2023-01-10T05:17:03;15.03;;;2.63;;
32106;SDS011;18622;51.998;10.440;2023-01-10T05:19:31;18.83;;;3.07;;
32106;SDS011;18622;51.998;10.440;2023-01-10T05:21:59;14.97;;;2.33;;
32106;SDS011;18622;51.998;10.440;2023-01-10T05:24:27;11.13;;;2.60;;
32106;SDS011;18622;51.998;10.440;2023-01-10T05:26:54;17.10;;;3.10;;
32106;SDS011;18622;51.998;10.440;2023-01-10T05:29:22;10.03;;;2.70;;
32106;SDS011;18622;51.998;10.440;2023-01-10T05:31:50;16.93;;;3.07;;
32106;SDS011;18622;51.998;10.440;2023-01-10T05:34:18;13.88;;;2.92;;
32106;SDS011;18622;51.998;10.440;2023-01-10T05:36:46;16.77;;;2.90;;
32106;SDS011;18622;51.998;10.440;2023-01-10T05:39:14;17.87;;;2.70;;
32106;SDS011;18622;51.998;10.440;2023-01-10T05:41:42;16.30;;;2.27;;
32106;SDS011;18622;51.998;10.440;2023-01-10T05:44:10;11.60;;;2.80;;
32106;SDS011;18622;51.998;10.440;2023-01-10T05:46:38;12.60;;;2.70;;
32106;SDS011;18622;51.998;10.440;2023-01-10T05:49:05;15.17;;;3.43;;
32106;SDS011;18622;51.998;10.440;2023-01-10T05:51:33;19.03;;;3.17;;
32106;SDS011;18622;51.998;10.440;2023-01-10T05:54:01;14.20;;;3.20;;
32106;SDS011;18622;51.998;10.440;2023-01-10T05:56:29;15.03;;;2.63;;
32106;SDS011;18622;51.998;10.440;2023-01-10T05:58:57;15.33;;;3.40;;
32106;SDS011;18622;51.998;10.440;2023-01-10T06:01:24;13.87;;;3.40;;
32106;SDS011;18622;51.998;10.440;2023-01-10T06:03:52;13.27;;;3.40;;
32106;SDS011;18622;51.998;10.440;2023-01-10T06:06:20;12.70;;;2.90;;
32106;SDS011;18622;51.998;10.440;2023-01-10T06:08:48;15.33;;;3.40;;
32106;SDS011;18622;51.998;10.440;2023-01-10T06:11:16;13.93;;;3.27;;
32106;SDS011;18622;51.998;10.440;2023-01-10T06:13:43;21.23;;;3.37;;
32106;SDS011;18622;51.998;10.440;2023-01-10T06:16:13;15.40;;;4.33;;
32106;SDS011;18622;51.998;10.440;2023-01-10T06:18:40;25.07;;;4.00;;
32106;SDS011;18622;51.998;10.440;2023-01-10T06:21:08;18.30;;;4.57;;
32106;SDS011;18622;51.998;10.440;2023-01-10T06:23:36;22.70;;;4.00;;
32106;SDS011;18622;51.998;10.440;2023-01-10T06:26:04;26.50;;;4.57;;
32106;SDS011;18622;51.998;10.440;2023-01-10T06:28:32;15.77;;;5.03;;
32106;SDS011;18622;51.998;10.440;2023-01-10T10:04:43;14.23;;;3.22;;
32106;SDS011;18622;51.998;10.440;2023-01-10T10:07:13;10.43;;;2.40;;
32106;SDS011;18622;51.998;10.440;2023-01-10T10:09:42;12.20;;;2.60;;
32106;SDS011;18622;51.998;10.440;2023-01-10T10:15:18;11.93;;;2.40;;
32106;SDS011;18622;51.998;10.440;2023-01-10T10:20:50;10.83;;;3.30;;
32106;SDS011;18622;51.998;10.440;2023-01-10T10:26:32;10.50;;;2.60;;
32106;SDS011;18622;51.998;10.440;2023-01-10T10:29:18;14.97;;;3.50;;
32106;SDS011;18622;51.998;10.440;2023-01-10T10:32:10;15.03;;;2.90;;
32106;SDS011;18622;51.998;10.440;2023-01-10T10:34:54;12.40;;;2.70;;
32106;SDS011;18622;51.998;10.440;2023-01-10T10:37:19;15.93;;;2.13;;
32106;SDS011;18622;51.998;10.440;2023-01-10T10:39:51;19.65;;;3.40;;
32106;SDS011;18622;51.998;10.440;2023-01-10T10:42:20;21.93;;;3.13;;
32106;SDS011;18622;51.998;10.440;2023-01-10T10:47:29;13.37;;;3.17;;
32106;SDS011;18622;51.998;10.440;2023-01-10T10:50:14;13.60;;;3.10;;
32106;SDS011;18622;51.998;10.440;2023-01-10T10:52:43;14.63;;;2.67;;
32106;SDS011;18622;51.998;10.440;2023-01-10T10:55:18;16.57;;;3.67;;
32106;SDS011;18622;51.998;10.440;2023-01-10T10:57:43;11.75;;;3.52;;
32106;SDS011;18622;51.998;10.440;2023-01-10T11:00:21;21.03;;;5.83;;
32106;SDS011;18622;51.998;10.440;2023-01-10T11:05:42;14.00;;;2.60;;
32106;SDS011;18622;51.998;10.440;2023-01-10T11:08:12;12.33;;;3.90;;
32106;SDS011;18622;51.998;10.440;2023-01-10T11:10:45;14.65;;;3.47;;
32106;SDS011;18622;51.998;10.440;2023-01-10T11:16:07;19.55;;;3.72;;
32106;SDS011;18622;51.998;10.440;2023-01-10T11:18:36;16.80;;;3.60;;
32106;SDS011;18622;51.998;10.440;2023-01-10T11:21:12;17.40;;;2.90;;
32106;SDS011;18622;51.998;10.440;2023-01-10T11:23:53;10.97;;;2.87;;
32106;SDS011;18622;51.998;10.440;2023-01-10T11:26:30;15.53;;;2.90;;
32106;SDS011;18622;51.998;10.440;2023-01-10T11:29:07;22.10;;;3.63;;
32106;SDS011;18622;51.998;10.440;2023-01-10T11:31:44;16.57;;;2.47;;
32106;SDS011;18622;51.998;10.440;2023-01-10T11:34:23;12.60;;;3.17;;
32106;SDS011;18622;51.998;10.440;2023-01-10T11:37:00;10.32;;;3.35;;
32106;SDS011;18622;51.998;10.440;2023-01-10T11:39:30;14.17;;;3.07;;
32106;SDS011;18622;51.998;10.440;2023-01-10T11:42:17;12.18;;;3.05;;
32106;SDS011;18622;51.998;10.440;2023-01-10T11:44:29;12.93;;;2.90;;
32106;SDS011;18622;51.998;10.440;2023-01-10T11:46:57;10.20;;;2.83;;
32106;SDS011;18622;51.998;10.440;2023-01-10T11:49:31;12.43;;;3.17;;
32106;SDS011;18622;51.998;10.440;2023-01-10T11:52:12;15.17;;;3.33;;
32106;SDS011;18622;51.998;10.440;2023-01-10T11:54:37;13.65;;;3.30;;
32106;SDS011;18622;51.998;10.440;2023-01-10T11:57:16;13.58;;;3.52;;
32106;SDS011;18622;51.998;10.440;2023-01-10T11:59:51;11.90;;;3.10;;
32106;SDS011;18622;51.998;10.440;2023-01-10T16:04:28;16.00;;;3.20;;
32106;SDS011;18622;51.998;10.440;2023-01-10T16:07:11;18.37;;;3.00;;
32106;SDS011;18622;51.998;10.440;2023-01-10T16:09:34;13.60;;;2.97;;
32106;SDS011;18622;51.998;10.440;2023-01-10T16:12:04;9.65;;;2.50;;
32106;SDS011;18622;51.998;10.440;2023-01-10T16:14:50;27.27;;;7.30;;
32106;SDS011;18622;51.998;10.440;2023-01-10T16:17:17;17.70;;;3.37;;
32106;SDS011;18622;51.998;10.440;2023-01-10T16:19:45;11.77;;;2.23;;
32106;SDS011;18622;51.998;10.440;2023-01-10T16:22:15;13.78;;;2.83;;
32106;SDS011;18622;51.998;10.440;2023-01-10T16:24:45;11.88;;;2.15;;
32106;SDS011;18622;51.998;10.440;2023-01-10T16:27:14;15.13;;;2.72;;
32106;SDS011;18622;51.998;10.440;2023-01-10T16:29:41;19.97;;;2.07;;
32106;SDS011;18622;51.998;10.440;2023-01-10T16:32:12;11.73;;;2.47;;
32106;SDS011;18622;51.998;10.440;2023-01-10T16:34:40;15.20;;;2.60;;
32106;SDS011;18622;51.998;10.440;2023-01-10T16:37:08;10.38;;;2.65;;
32106;SDS011;18622;51.998;10.440;2023-01-10T16:39:36;13.63;;;2.83;;
32106;SDS011;18622;51.998;10.440;2023-01-10T16:42:04;15.40;;;2.23;;
32106;SDS011;18622;51.998;10.440;2023-01-10T16:44:49;12.57;;;2.20;;
32106;SDS011;18622;51.998;10.440;2023-01-10T16:47:17;10.70;;;2.67;;
32106;SDS011;18622;51.998;10.440;2023-01-10T16:49:45;10.03;;;2.17;;
32106;SDS011;18622;51.998;10.440;2023-01-10T16:52:13;10.33;;;2.20;;
32106;SDS011;18622;51.998;10.440;2023-01-10T16:54:41;13.73;;;2.90;;
32106;SDS011;18622;51.998;10.440;2023-01-10T16:57:09;14.80;;;3.13;;
32106;SDS011;18622;51.998;10.440;2023-01-10T16:59:37;16.42;;;3.30;;
32106;SDS011;18622;51.998;10.440;2023-01-10T17:02:08;16.40;;;2.60;;
32106;SDS011;18622;51.998;10.440;2023-01-10T17:04:36;10.23;;;2.87;;
32106;SDS011;18622;51.998;10.440;2023-01-10T17:07:04;11.53;;;2.87;;
32106;SDS011;18622;51.998;10.440;2023-01-10T17:09:32;13.37;;;2.13;;
32106;SDS011;18622;51.998;10.440;2023-01-10T17:12:02;14.03;;;2.97;;
32106;SDS011;18622;51.998;10.440;2023-01-10T17:14:32;7.72;;;1.90;;
32106;SDS011;18622;51.998;10.440;2023-01-10T17:19:28;10.43;;;2.40;;
32106;SDS011;18622;51.998;10.440;2023-01-10T17:21:56;15.43;;;2.73;;
32106;SDS011;18622;51.998;10.440;2023-01-10T17:24:25;15.68;;;2.75;;
32106;SDS011;18622;51.998;10.440;2023-01-10T17:26:54;12.78;;;2.65;;
32106;SDS011;18622;51.998;10.440;2023-01-10T17:29:22;11.23;;;3.13;;
32106;SDS011;18622;51.998;10.440;2023-01-10T17:31:50;13.23;;;2.60;;
32106;SDS011;18622;51.998;10.440;2023-01-10T17:34:18;11.73;;;2.50;;
32106;SDS011;18622;51.998;10.440;2023-01-10T17:36:46;16.57;;;3.07;;
32106;SDS011;18622;51.998;10.440;2023-01-10T17:39:13;15.93;;;2.43;;
32106;SDS011;18622;51.998;10.440;2023-01-10T17:41:41;11.80;;;2.67;;
32106;SDS011;18622;51.998;10.440;2023-01-10T17:44:09;16.63;;;3.03;;
32106;SDS011;18622;51.998;10.440;2023-01-10T17:46:37;9.63;;;2.90;;
32106;SDS011;18622;51.998;10.440;2023-01-10T17:49:05;15.20;;;2.90;;
32106;SDS011;18622;51.998;10.440;2023-01-10T17:51:33;15.60;;;2.77;;
32106;SDS011;18622;51.998;10.440;2023-01-10T17:54:00;13.07;;;2.20;;
32106;SDS011;18622;51.998;10.440;2023-01-10T17:56:28;11.03;;;2.63;;
32106;SDS011;18622;51.998;10.440;2023-01-10T17:58:56;18.87;;;2.90;;
32106;SDS011;18622;51.998;10.440;2023-01-10T18:01:24;17.53;;;2.80;;
32106;SDS011;18622;51.998;10.440;2023-01-10T18:03:52;15.40;;;2.80;;
32106;SDS011;18622;51.998;10.440;2023-01-10T18:06:19;7.50;;;2.33;;
32106;SDS011;18622;51.998;10.440;2023-01-10T18:08:47;16.37;;;2.40;;
32106;SDS011;18622;51.998;10.440;2023-01-10T18:11:15;11.93;;;2.43;;
32106;SDS011;18622;51.998;10.440;2023-01-10T18:13:43;13.97;;;2.70;;
32106;SDS011;18622;51.998;10.440;2023-01-10T18:16:11;14.63;;;2.53;;
32106;SDS011;18622;51.998;10.440;2023-01-10T18:18:39;12.17;;;1.87;;
32106;SDS011;18622;51.998;10.440;2023-01-10T18:21:11;16.03;;;3.10;;
32106;SDS011;18622;51.998;10.440;2023-01-10T18:23:40;11.87;;;1.87;;
32106;SDS011;18622;51.998;10.440;2023-01-10T18:26:09;13.33;;;2.87;;
32106;SDS011;18622;51.998;10.440;2023-01-10T18:28:38;15.05;;;1.67;;
32106;SDS011;18622;51.998;10.440;2023-01-10T18:31:14;13.38;;;2.80;;
32106;SDS011;18622;51.998;10.440;2023-01-10T18:33:44;11.20;;;2.27;;
32106;SDS011;18622;51.998;10.440;2023-01-10T18:36:16;15.45;;;3.42;;
32106;SDS011;18622;51.998;10.440;2023-01-10T18:38:46;14.87;;;2.23;;
32106;SDS011;18622;51.998;10.440;2023-01-10T18:41:16;14.45;;;2.55;;
32106;SDS011;18622;51.998;10.440;2023-01-10T18:46:14;10.13;;;1.90;;
32106;SDS011;18622;51.998;10.440;2023-01-10T18:48:46;16.40;;;2.58;;
32106;SDS011;18622;51.998;10.440;2023-01-10T18:51:15;12.43;;;3.45;;
32106;SDS011;18622;51.998;10.440;2023-01-10T18:53:44;16.17;;;4.72;;
32106;SDS011;18622;51.998;10.440;2023-01-10T18:56:12;15.55;;;3.90;;
32106;SDS011;18622;51.998;10.440;2023-01-10T18:58:40;14.15;;;2.77;;
32106;SDS011;18622;51.998;10.440;2023-01-10T19:01:16;10.80;;;2.30;;
32106;SDS011;18622;51.998;10.440;2023-01-10T19:03:44;13.47;;;4.10;;
32106;SDS011;18622;51.998;10.440;2023-01-10T19:06:13;12.40;;;3.37;;
32106;SDS011;18622;51.998;10.440;2023-01-10T19:08:43;22.17;;;3.45;;
32106;SDS011;18622;51.998;10.440;2023-01-10T19:11:12;12.60;;;2.57;;
32106;SDS011;18622;51.998;10.440;2023-01-10T19:13:40;13.65;;;2.60;;
32106;SDS011;18622;51.998;10.440;2023-01-10T19:16:13;21.17;;;3.90;;
32106;SDS011;18622;51.998;10.440;2023-01-10T19:18:52;12.00;;;2.80;;
32106;SDS011;18622;51.998;10.440;2023-01-10T19:21:22;11.17;;;2.37;;
32106;SDS011;18622;51.998;10.440;2023-01-10T19:23:51;11.55;;;2.40;;
32106;SDS011;18622;51.998;10.440;2023-01-10T19:28:47;18.12;;;3.10;;
32106;SDS011;18622;51.998;10.440;2023-01-10T19:31:16;14.40;;;3.10;;
32106;SDS011;18622;51.998;10.440;2023-01-10T19:33:45;16.25;;;3.37;;
32106;SDS011;18622;51.998;10.440;2023-01-10T19:36:13;17.90;;;3.73;;
32106;SDS011;18622;51.998;10.440;2023-01-10T19:38:42;16.25;;;3.58;;
32106;SDS011;18622;51.998;10.440;2023-01-10T19:41:10;15.97;;;3.23;;
32106;SDS011;18622;51.998;10.440;2023-01-10T19:43:40;15.60;;;2.53;;
32106;SDS011;18622;51.998;10.440;2023-01-10T19:46:09;17.13;;;2.67;;
32106;SDS011;18622;51.998;10.440;2023-01-10T19:48:38;16.65;;;3.52;;
32106;SDS011;18622;51.998;10.440;2023-01-10T19:51:06;14.80;;;2.90;;
32106;SDS011;18622;51.998;10.440;2023-01-10T19:53:35;12.53;;;2.57;;
32106;SDS011;18622;51.998;10.440;2023-01-10T19:56:05;14.68;;;3.15;;
32106;SDS011;18622;51.998;10.440;2023-01-10T19:58:34;17.00;;;3.95;;
32106;SDS011;18622;51.998;10.440;2023-01-10T20:01:11;14.03;;;2.85;;
32106;SDS011;18622;51.998;10.440;2023-01-10T20:03:36;18.03;;;3.73;;
32106;SDS011;18622;51.998;10.440;2023-01-10T20:06:07;15.93;;;5.08;;
32106;SDS011;18622;51.998;10.440;2023-01-10T20:08:38;13.57;;;2.70;;
32106;SDS011;18622;51.998;10.440;2023-01-10T20:11:06;20.62;;;3.72;;
32106;SDS011;18622;51.998;10.440;2023-01-10T20:13:35;14.30;;;3.50;;
32106;SDS011;18622;51.998;10.440;2023-01-10T20:16:04;16.42;;;3.15;;
32106;SDS011;18622;51.998;10.440;2023-01-10T20:18:32;15.17;;;3.10;;
32106;SDS011;18622;51.998;10.440;2023-01-10T20:21:03;22.17;;;3.93;;
32106;SDS011;18622;51.998;10.440;2023-01-10T20:23:34;12.37;;;2.95;;
32106;SDS011;18622;51.998;10.440;2023-01-10T20:26:04;20.75;;;4.92;;
32106;SDS011;18622;51.998;10.440;2023-01-10T20:28:34;21.17;;;2.93;;
32106;SDS011;18622;51.998;10.440;2023-01-10T20:31:02;19.15;;;3.58;;
32106;SDS011;18622;51.998;10.440;2023-01-10T20:33:32;17.12;;;2.45;;
32106;SDS011;18622;51.998;10.440;2023-01-10T20:36:06;13.23;;;2.53;;
32106;SDS011;18622;51.998;10.440;2023-01-10T20:38:32;16.02;;;2.92;;
32106;SDS011;18622;51.998;10.440;2023-01-10T20:41:09;17.85;;;3.52;;
32106;SDS011;18622;51.998;10.440;2023-01-10T20:43:37;14.93;;;3.93;;
32106;SDS011;18622;51.998;10.440;2023-01-10T20:46:06;15.48;;;2.12;;
32106;SDS011;18622;51.998;10.440;2023-01-10T20:48:38;10.03;;;2.98;;
32106;SDS011;18622;51.998;10.440;2023-01-10T20:51:09;12.58;;;2.20;;
32106;SDS011;18622;51.998;10.440;2023-01-10T20:53:37;11.53;;;2.98;;
32106;SDS011;18622;51.998;10.440;2023-01-10T20:56:06;7.93;;;1.90;;
32106;SDS011;18622;51.998;10.440;2023-01-10T20:58:35;11.93;;;2.33;;
32106;SDS011;18622;51.998;10.440;2023-01-10T21:01:04;13.58;;;2.62;;
32106;SDS011;18622;51.998;10.440;2023-01-10T21:03:33;11.30;;;2.98;;
32106;SDS011;18622;51.998;10.440;2023-01-10T21:06:00;9.27;;;2.50;;
32106;SDS011;18622;51.998;10.440;2023-01-10T21:08:29;7.93;;;2.13;;
32106;SDS011;18622;51.998;10.440;2023-01-10T21:10:57;10.03;;;2.27;;
32106;SDS011;18622;51.998;10.440;2023-01-10T21:13:25;7.97;;;1.87;;
32106;SDS011;18622;51.998;10.440;2023-01-10T21:15:53;7.97;;;1.57;;
32106;SDS011;18622;51.998;10.440;2023-01-10T21:18:23;9.93;;;1.77;;
32106;SDS011;18622;51.998;10.440;2023-01-10T21:20:54;9.43;;;1.90;;
32106;SDS011;18622;51.998;10.440;2023-01-10T21:23:23;4.53;;;1.20;;
32106;SDS011;18622;51.998;10.440;2023-01-10T21:25:52;5.15;;;1.47;;
32106;SDS011;18622;51.998;10.440;2023-01-10T21:28:22;12.43;;;2.20;;
32106;SDS011;18622;51.998;10.440;2023-01-10T21:30:51;11.80;;;1.90;;
32106;SDS011;18622;51.998;10.440;2023-01-10T21:33:19;12.20;;;2.17;;
32106;SDS011;18622;51.998;10.440;2023-01-10T21:35:50;14.47;;;2.33;;
32106;SDS011;18622;51.998;10.440;2023-01-10T21:38:19;10.93;;;2.40;;
32106;SDS011;18622;51.998;10.440;2023-01-10T21:40:47;11.38;;;1.85;;
32106;SDS011;18622;51.998;10.440;2023-01-10T21:43:15;10.57;;;2.80;;
32106;SDS011;18622;51.998;10.440;2023-01-10T21:45:42;12.00;;;2.10;;
32106;SDS011;18622;51.998;10.440;2023-01-10T21:48:10;11.60;;;2.10;;
32106;SDS011;18622;51.998;10.440;2023-01-10T21:50:38;8.27;;;2.03;;
32106;SDS011;18622;51.998;10.440;2023-01-10T21:53:07;7.85;;;1.60;;
32106;SDS011;18622;51.998;10.440;2023-01-10T21:55:35;12.10;;;2.47;;
32106;SDS011;18622;51.998;10.440;2023-01-10T21:58:03;9.57;;;1.77;;
